createdAt,value
2019-03-25T00:02:17.259Z,22.43
2019-03-25T00:04:45.882Z,26.17
2019-03-25T00:07:14.482Z,24.23
2019-03-25T00:09:43.167Z,25.10
2019-03-25T00:12:14.521Z,25.67
2019-03-25T00:14:43.073Z,26.97
2019-03-25T00:17:11.818Z,27.53
2019-03-25T00:19:40.533Z,28.90
2019-03-25T00:22:09.173Z,28.73
2019-03-25T00:24:38.988Z,29.83
2019-03-25T00:27:07.651Z,27.83
2019-03-25T00:29:36.215Z,25.50
2019-03-25T00:32:04.892Z,23.70
2019-03-25T00:34:33.529Z,25.03
2019-03-25T00:37:02.160Z,24.77
2019-03-25T00:39:30.727Z,25.57
2019-03-25T00:41:59.211Z,25.30
2019-03-25T00:44:27.851Z,26.10
2019-03-25T00:46:56.442Z,26.20
2019-03-25T00:49:25.132Z,25.37
2019-03-25T00:51:53.679Z,27.30
2019-03-25T00:54:22.234Z,26.53
2019-03-25T00:56:50.792Z,26.30
2019-03-25T00:59:19.427Z,25.80
2019-03-25T01:01:48.245Z,25.50
2019-03-25T01:04:16.915Z,25.00
2019-03-25T01:06:45.562Z,25.57
2019-03-25T01:09:14.186Z,26.27
2019-03-25T01:11:48.941Z,23.10
2019-03-25T01:14:13.039Z,22.53
2019-03-25T01:16:41.707Z,23.27
2019-03-25T01:19:10.274Z,25.33
2019-03-25T01:21:38.956Z,25.23
2019-03-25T01:24:07.589Z,23.03
2019-03-25T01:26:36.202Z,23.90
2019-03-25T01:29:04.835Z,23.27
2019-03-25T01:31:33.476Z,23.27
2019-03-25T01:34:02.037Z,21.10
2019-03-25T01:36:30.597Z,22.03
2019-03-25T01:38:59.204Z,22.27
2019-03-25T01:41:27.733Z,22.60
2019-03-25T01:43:56.225Z,21.87
2019-03-25T01:46:24.870Z,22.80
2019-03-25T01:48:53.470Z,20.93
2019-03-25T01:51:22.040Z,19.87
2019-03-25T01:53:50.542Z,21.67
2019-03-25T01:56:19.171Z,20.73
2019-03-25T01:58:47.781Z,21.83
2019-03-25T02:01:16.420Z,21.57
2019-03-25T02:03:44.893Z,27.13
2019-03-25T02:06:13.534Z,24.27
2019-03-25T02:08:42.217Z,22.67
2019-03-25T02:11:10.930Z,23.37
2019-03-25T02:13:39.559Z,22.73
2019-03-25T02:16:08.200Z,25.10
2019-03-25T02:18:36.754Z,25.93
2019-03-25T02:21:05.726Z,25.93
2019-03-25T02:23:37.348Z,24.93
2019-03-25T02:26:06.010Z,26.27
2019-03-25T02:28:34.572Z,26.57
2019-03-25T02:31:03.918Z,27.00
2019-03-25T02:33:32.474Z,27.70
2019-03-25T02:36:01.045Z,27.40
2019-03-25T02:38:29.630Z,27.77
2019-03-25T02:40:58.196Z,27.07
2019-03-25T02:43:26.693Z,26.73
2019-03-25T02:45:55.295Z,25.73
2019-03-25T02:48:23.817Z,21.57
2019-03-25T02:50:53.302Z,21.93
2019-03-25T02:53:21.862Z,22.50
2019-03-25T02:55:50.427Z,23.00
2019-03-25T02:58:19.092Z,23.93
2019-03-25T03:00:47.781Z,23.80
2019-03-25T03:03:16.334Z,23.00
2019-03-25T03:05:44.960Z,22.83
2019-03-25T03:08:13.641Z,24.67
2019-03-25T03:10:42.268Z,22.27
2019-03-25T03:13:10.931Z,21.60
2019-03-25T03:15:39.488Z,21.87
2019-03-25T03:18:09.146Z,20.77
2019-03-25T03:20:37.782Z,23.43
2019-03-25T03:23:06.385Z,20.60
2019-03-25T03:25:36.454Z,17.67
2019-03-25T03:28:05.130Z,16.73
2019-03-25T03:30:33.709Z,17.73
2019-03-25T03:33:02.298Z,17.93
2019-03-25T03:35:30.902Z,16.83
2019-03-25T03:37:59.467Z,17.83
2019-03-25T03:40:28.143Z,18.30
2019-03-25T03:42:59.630Z,19.80
2019-03-25T03:45:28.307Z,18.90
2019-03-25T03:47:56.927Z,20.03
2019-03-25T03:50:27.214Z,19.13
2019-03-25T03:52:57.141Z,19.63
2019-03-25T03:55:26.272Z,17.87
2019-03-25T03:57:57.143Z,17.43
2019-03-25T04:00:34.221Z,17.40
2019-03-25T04:03:02.861Z,18.93
2019-03-25T04:05:31.597Z,19.30
2019-03-25T04:08:00.229Z,20.17
2019-03-25T04:10:28.865Z,18.37
2019-03-25T04:12:57.540Z,17.47
2019-03-25T04:15:28.773Z,17.13
2019-03-25T04:17:57.962Z,17.10
2019-03-25T04:20:26.720Z,17.93
2019-03-25T04:22:55.454Z,26.17
2019-03-25T04:25:24.088Z,21.00
2019-03-25T04:27:52.766Z,17.73
2019-03-25T04:30:21.409Z,16.03
2019-03-25T04:32:50.035Z,16.90
2019-03-25T04:35:18.666Z,17.07
2019-03-25T04:37:47.295Z,15.63
2019-03-25T04:40:15.927Z,16.13
2019-03-25T04:42:44.486Z,16.17
2019-03-25T04:45:13.261Z,17.27
2019-03-25T04:47:41.824Z,18.77
2019-03-25T04:50:10.589Z,17.33
2019-03-25T04:52:39.267Z,18.47
2019-03-25T04:55:07.986Z,21.07
2019-03-25T04:57:36.618Z,18.50
2019-03-25T05:00:06.283Z,17.30
2019-03-25T05:02:34.842Z,16.70
2019-03-25T05:05:03.557Z,16.33
2019-03-25T05:07:32.114Z,17.27
2019-03-25T05:10:00.658Z,14.73
2019-03-25T05:12:29.229Z,16.13
2019-03-25T05:14:57.861Z,15.43
2019-03-25T05:17:26.430Z,16.77
2019-03-25T05:19:55.014Z,14.60
2019-03-25T05:22:23.692Z,14.97
2019-03-25T05:24:52.188Z,14.13
2019-03-25T05:27:20.826Z,13.33
2019-03-25T05:29:52.186Z,15.57
2019-03-25T05:32:20.818Z,13.07
2019-03-25T05:34:49.305Z,13.20
2019-03-25T05:37:17.946Z,14.00
2019-03-25T05:39:46.510Z,13.23
2019-03-25T05:42:14.998Z,13.57
2019-03-25T05:44:43.637Z,13.97
2019-03-25T05:47:12.091Z,19.87
2019-03-25T05:49:40.687Z,21.37
2019-03-25T05:52:09.236Z,16.17
2019-03-25T05:54:37.735Z,13.77
2019-03-25T05:57:06.348Z,14.50
2019-03-25T05:59:34.945Z,16.27
2019-03-25T06:02:03.651Z,14.63
2019-03-25T06:04:32.147Z,13.97
2019-03-25T06:07:00.787Z,12.07
2019-03-25T06:09:29.325Z,12.77
2019-03-25T06:11:58.004Z,12.17
2019-03-25T06:14:26.696Z,11.43
2019-03-25T06:16:55.650Z,12.43
2019-03-25T06:19:24.304Z,11.33
2019-03-25T06:21:53.030Z,13.27
2019-03-25T06:24:21.701Z,12.03
2019-03-25T06:26:50.445Z,11.73
2019-03-25T06:29:22.275Z,11.80
2019-03-25T06:31:50.962Z,11.77
2019-03-25T06:34:19.778Z,12.07
2019-03-25T06:36:48.598Z,12.57
2019-03-25T06:39:17.393Z,13.07
2019-03-25T06:41:46.133Z,11.77
2019-03-25T06:44:14.815Z,11.70
2019-03-25T06:46:44.338Z,11.90
2019-03-25T06:49:14.658Z,11.63
2019-03-25T06:51:45.242Z,10.90
2019-03-25T06:54:13.852Z,11.47
2019-03-25T06:56:45.324Z,11.60
2019-03-25T06:59:15.432Z,11.30
2019-03-25T07:01:44.997Z,11.57
2019-03-25T07:04:13.828Z,12.00
2019-03-25T07:06:44.969Z,11.53
2019-03-25T07:09:13.876Z,11.67
2019-03-25T07:11:42.738Z,11.47
2019-03-25T07:14:11.635Z,11.10
2019-03-25T07:16:40.384Z,11.07
2019-03-25T07:19:09.206Z,11.20
2019-03-25T07:21:37.908Z,11.50
2019-03-25T07:24:06.766Z,11.63
2019-03-25T07:26:35.572Z,11.50
2019-03-25T07:29:04.342Z,11.93
2019-03-25T07:31:33.127Z,11.10
2019-03-25T07:34:01.904Z,25.87
2019-03-25T07:36:30.737Z,11.70
2019-03-25T07:39:00.298Z,11.67
2019-03-25T07:41:29.170Z,11.30
2019-03-25T07:43:57.939Z,10.97
2019-03-25T07:46:26.997Z,11.77
2019-03-25T07:48:55.736Z,10.80
2019-03-25T07:51:24.760Z,10.30
2019-03-25T07:53:53.677Z,11.27
2019-03-25T07:56:22.573Z,11.93
2019-03-25T07:58:51.324Z,13.00
2019-03-25T08:01:20.027Z,13.37
2019-03-25T08:03:48.642Z,14.43
2019-03-25T08:06:17.278Z,14.10
2019-03-25T08:08:45.930Z,16.30
2019-03-25T08:11:14.649Z,11.77
2019-03-25T08:13:43.271Z,11.33
2019-03-25T08:16:15.455Z,9.90
2019-03-25T08:18:44.275Z,11.30
2019-03-25T08:21:13.133Z,10.23
2019-03-25T08:23:41.867Z,9.00
2019-03-25T08:26:10.694Z,10.03
2019-03-25T08:28:39.573Z,9.43
2019-03-25T08:31:08.342Z,10.13
2019-03-25T08:33:39.424Z,9.90
2019-03-25T08:36:08.312Z,12.00
2019-03-25T08:38:37.096Z,9.50
2019-03-25T08:41:05.865Z,10.40
2019-03-25T08:43:34.747Z,9.93
2019-03-25T08:46:03.468Z,10.45
2019-03-25T08:48:37.184Z,10.00
2019-03-25T08:51:06.083Z,10.47
2019-03-25T08:53:34.829Z,10.20
2019-03-25T08:56:06.669Z,10.50
2019-03-25T08:58:35.438Z,11.10
2019-03-25T09:01:04.260Z,9.45
2019-03-25T09:03:33.076Z,9.93
2019-03-25T09:06:06.100Z,9.30
2019-03-25T09:08:35.186Z,9.68
2019-03-25T09:11:06.897Z,9.68
2019-03-25T09:13:35.004Z,10.70
2019-03-25T09:16:03.822Z,9.13
2019-03-25T09:18:32.951Z,9.13
2019-03-25T09:21:04.627Z,9.03
2019-03-25T09:23:33.419Z,9.65
2019-03-25T09:26:02.249Z,9.95
2019-03-25T09:28:31.431Z,8.93
2019-03-25T09:31:03.129Z,8.88
2019-03-25T09:33:32.005Z,8.48
2019-03-25T09:36:00.876Z,8.70
2019-03-25T09:38:38.296Z,8.35
2019-03-25T09:41:04.902Z,8.55
2019-03-25T09:43:36.501Z,8.25
2019-03-25T09:46:07.761Z,9.03
2019-03-25T09:48:39.001Z,7.92
2019-03-25T09:51:09.411Z,8.38
2019-03-25T09:53:38.358Z,7.75
2019-03-25T09:56:16.467Z,7.65
2019-03-25T09:58:45.078Z,8.55
2019-03-25T10:01:13.722Z,7.47
2019-03-25T10:03:42.634Z,7.42
2019-03-25T10:06:11.286Z,8.78
2019-03-25T10:08:39.911Z,7.50
2019-03-25T10:11:08.582Z,7.72
2019-03-25T10:13:37.200Z,7.92
2019-03-25T10:16:06.038Z,7.85
2019-03-25T10:18:34.708Z,8.55
2019-03-25T10:21:03.392Z,8.20
2019-03-25T10:23:32.015Z,8.20
2019-03-25T10:26:00.691Z,9.35
2019-03-25T10:28:29.415Z,8.38
2019-03-25T10:30:58.050Z,8.08
2019-03-25T10:33:26.687Z,7.95
2019-03-25T10:35:55.485Z,7.80
2019-03-25T10:38:24.276Z,8.13
2019-03-25T10:40:55.980Z,8.38
2019-03-25T10:43:24.737Z,8.23
2019-03-25T10:45:53.535Z,7.87
2019-03-25T10:48:22.317Z,7.72
2019-03-25T10:50:52.527Z,8.10
2019-03-25T10:53:28.954Z,7.60
2019-03-25T10:55:55.005Z,7.72
2019-03-25T10:58:23.731Z,8.68
2019-03-25T11:00:52.496Z,7.92
2019-03-25T11:03:21.925Z,8.20
2019-03-25T11:05:53.213Z,7.87
2019-03-25T11:08:22.679Z,7.58
2019-03-25T11:10:51.859Z,7.35
2019-03-25T11:16:22.896Z,7.17
2019-03-25T11:18:58.952Z,7.08
2019-03-25T11:21:27.938Z,7.83
2019-03-25T11:23:56.753Z,7.92
2019-03-25T11:26:25.520Z,7.28
2019-03-25T11:28:54.365Z,7.50
2019-03-25T11:31:23.079Z,7.53
2019-03-25T11:33:51.782Z,7.22
2019-03-25T11:36:20.889Z,6.30
2019-03-25T11:38:52.432Z,6.90
2019-03-25T11:41:21.317Z,7.00
2019-03-25T11:43:50.224Z,7.12
2019-03-25T11:46:21.812Z,8.10
2019-03-25T11:48:50.480Z,7.42
2019-03-25T11:51:19.218Z,6.85
2019-03-25T11:53:50.864Z,9.43
2019-03-25T11:56:19.638Z,8.10
2019-03-25T11:58:51.180Z,10.15
2019-03-25T12:01:19.988Z,8.40
2019-03-25T12:03:49.213Z,7.75
2019-03-25T12:06:23.915Z,8.15
2019-03-25T12:08:55.126Z,7.67
2019-03-25T12:11:25.986Z,9.58
2019-03-25T12:13:59.229Z,9.70
2019-03-25T12:16:34.641Z,9.33
2019-03-25T12:19:07.085Z,9.48
2019-03-25T12:21:36.850Z,8.78
2019-03-25T12:24:05.871Z,9.45
2019-03-25T12:26:40.417Z,10.75
2019-03-25T12:29:09.310Z,10.53
2019-03-25T12:31:38.915Z,10.63
2019-03-25T12:34:08.342Z,10.43
2019-03-25T12:36:42.539Z,9.80
2019-03-25T12:39:12.641Z,11.10
2019-03-25T12:41:42.839Z,10.75
2019-03-25T12:44:14.022Z,12.15
2019-03-25T12:46:43.457Z,11.00
2019-03-25T12:49:12.222Z,10.35
2019-03-25T12:51:40.976Z,10.28
2019-03-25T12:54:10.131Z,9.28
2019-03-25T12:56:38.899Z,9.73
2019-03-25T12:59:07.805Z,10.00
2019-03-25T13:01:39.253Z,9.88
2019-03-25T13:04:08.038Z,11.08
2019-03-25T13:06:36.893Z,11.08
2019-03-25T13:09:07.394Z,11.83
2019-03-25T13:11:36.090Z,8.50
2019-03-25T13:14:04.974Z,10.00
2019-03-25T13:16:33.671Z,8.28
2019-03-25T13:19:02.438Z,8.58
2019-03-25T13:21:34.134Z,6.95
2019-03-25T13:24:02.784Z,7.40
2019-03-25T13:26:31.423Z,7.72
2019-03-25T13:29:02.448Z,7.05
2019-03-25T13:31:38.709Z,7.97
2019-03-25T13:34:08.334Z,7.87
2019-03-25T13:36:37.097Z,6.87
2019-03-25T13:39:12.495Z,7.10
2019-03-25T13:41:42.149Z,7.35
2019-03-25T13:44:14.632Z,8.10
2019-03-25T13:46:47.961Z,7.83
2019-03-25T13:49:21.220Z,10.75
2019-03-25T13:51:50.196Z,6.40
2019-03-25T13:54:18.954Z,7.53
2019-03-25T13:56:50.219Z,7.58
2019-03-25T13:59:18.998Z,7.60
2019-03-25T14:01:47.660Z,7.25
2019-03-25T14:04:16.337Z,7.65
2019-03-25T14:06:45.088Z,6.62
2019-03-25T14:09:13.887Z,6.53
2019-03-25T14:11:42.685Z,6.92
2019-03-25T14:14:11.435Z,7.00
2019-03-25T14:16:39.979Z,7.25
2019-03-25T14:19:08.666Z,6.12
2019-03-25T14:21:37.267Z,6.10
2019-03-25T14:24:06.263Z,7.42
2019-03-25T14:26:34.913Z,6.70
2019-03-25T14:29:03.598Z,5.97
2019-03-25T14:31:32.347Z,6.42
2019-03-25T14:34:01.052Z,6.58
2019-03-25T14:36:29.753Z,6.67
2019-03-25T14:38:58.422Z,7.20
2019-03-25T14:41:27.783Z,5.87
2019-03-25T14:43:57.087Z,6.55
2019-03-25T14:46:25.787Z,6.20
2019-03-25T14:48:54.505Z,6.03
2019-03-25T14:51:26.085Z,6.40
2019-03-25T14:53:55.146Z,6.65
2019-03-25T14:56:23.777Z,6.35
2019-03-25T14:58:52.491Z,5.80
2019-03-25T15:01:21.240Z,5.92
2019-03-25T15:03:49.942Z,6.15
2019-03-25T15:06:18.616Z,6.60
2019-03-25T15:08:47.306Z,7.05
2019-03-25T15:11:16.047Z,6.85
2019-03-25T15:13:44.744Z,6.60
2019-03-25T15:16:13.340Z,6.42
2019-03-25T15:18:42.041Z,7.45
2019-03-25T15:21:13.766Z,6.05
2019-03-25T15:23:42.468Z,6.75
2019-03-25T15:26:13.922Z,7.35
2019-03-25T15:28:42.663Z,7.03
2019-03-25T15:31:11.367Z,6.40
2019-03-25T15:33:40.110Z,6.62
2019-03-25T15:36:08.930Z,6.50
2019-03-25T15:38:37.677Z,7.55
2019-03-25T15:41:06.299Z,8.03
2019-03-25T15:43:35.041Z,6.35
2019-03-25T15:46:03.773Z,8.63
2019-03-25T15:48:35.438Z,8.05
2019-03-25T15:51:04.171Z,7.53
2019-03-25T15:53:32.865Z,7.37
2019-03-25T15:56:01.609Z,7.42
2019-03-25T15:58:30.304Z,8.78
2019-03-25T16:00:59.021Z,7.60
2019-03-25T16:03:27.713Z,8.05
2019-03-25T16:05:56.463Z,8.25
2019-03-25T16:08:25.156Z,8.20
2019-03-25T16:10:54.007Z,7.35
2019-03-25T16:13:22.838Z,8.60
2019-03-25T16:15:51.933Z,8.93
2019-03-25T16:18:56.208Z,10.73
2019-03-25T16:21:24.917Z,8.47
2019-03-25T16:23:53.663Z,8.97
2019-03-25T16:26:22.360Z,9.93
2019-03-25T16:28:51.095Z,8.93
2019-03-25T16:31:19.844Z,9.77
2019-03-25T16:33:48.582Z,8.77
2019-03-25T16:36:17.327Z,9.70
2019-03-25T16:38:46.027Z,10.20
2019-03-25T16:41:14.763Z,9.97
2019-03-25T16:43:43.466Z,9.50
2019-03-25T16:46:12.237Z,9.23
2019-03-25T16:48:40.979Z,8.83
2019-03-25T16:51:09.730Z,10.30
2019-03-25T16:53:38.429Z,10.53
2019-03-25T16:56:07.232Z,11.17
2019-03-25T16:58:36.270Z,12.27
2019-03-25T17:01:09.889Z,16.23
2019-03-25T17:03:35.704Z,17.10
2019-03-25T17:06:04.503Z,16.37
2019-03-25T17:08:33.551Z,16.43
2019-03-25T17:11:02.477Z,15.70
2019-03-25T17:13:31.185Z,14.10
2019-03-25T17:16:00.137Z,14.30
2019-03-25T17:18:29.034Z,12.13
2019-03-25T17:20:57.975Z,13.13
2019-03-25T17:23:27.075Z,11.77
2019-03-25T17:25:56.085Z,12.10
2019-03-25T17:28:25.200Z,10.23
2019-03-25T17:30:54.295Z,10.47
2019-03-25T17:33:23.342Z,11.13
2019-03-25T17:35:52.356Z,10.77
2019-03-25T17:38:21.382Z,10.60
2019-03-25T17:40:53.623Z,11.20
2019-03-25T17:43:22.635Z,11.70
2019-03-25T17:45:51.686Z,10.80
2019-03-25T17:48:20.714Z,9.50
2019-03-25T17:50:53.052Z,9.60
2019-03-25T17:53:22.314Z,11.07
2019-03-25T17:55:51.337Z,9.87
2019-03-25T17:58:20.396Z,8.93
2019-03-25T18:00:52.220Z,7.83
2019-03-25T18:03:21.316Z,7.47
2019-03-25T18:05:50.365Z,6.03
2019-03-25T18:08:19.397Z,7.20
2019-03-25T18:10:48.393Z,6.30
2019-03-25T18:13:22.402Z,5.57
2019-03-25T18:15:51.346Z,6.00
2019-03-25T18:18:20.666Z,10.00
2019-03-25T18:20:49.663Z,13.17
2019-03-25T18:23:18.408Z,11.10
2019-03-25T18:25:47.402Z,7.00
2019-03-25T18:28:16.307Z,6.17
2019-03-25T18:30:45.008Z,7.53
2019-03-25T18:33:14.059Z,9.87
2019-03-25T18:35:43.103Z,8.23
2019-03-25T18:38:11.594Z,7.67
2019-03-25T18:40:40.582Z,6.47
2019-03-25T18:43:09.324Z,6.67
2019-03-25T18:45:38.130Z,5.90
2019-03-25T18:48:09.735Z,6.50
2019-03-25T18:50:38.355Z,5.87
2019-03-25T18:53:07.411Z,7.07
2019-03-25T18:55:39.411Z,5.70
2019-03-25T18:58:08.608Z,4.53
2019-03-25T19:00:37.785Z,5.43
2019-03-25T19:03:06.690Z,5.33
2019-03-25T19:05:35.845Z,6.33
2019-03-25T19:08:05.737Z,12.43
2019-03-25T19:10:34.909Z,22.43
2019-03-25T19:13:07.060Z,10.57
2019-03-25T19:15:36.058Z,7.70
2019-03-25T19:18:13.867Z,7.67
2019-03-25T19:20:42.917Z,6.20
2019-03-25T19:23:14.842Z,7.10
2019-03-25T19:25:43.900Z,6.50
2019-03-25T19:28:12.801Z,6.53
2019-03-25T19:30:41.910Z,8.77
2019-03-25T19:33:10.989Z,9.90
2019-03-25T19:35:39.763Z,9.57
2019-03-25T19:38:08.758Z,9.70
2019-03-25T19:40:37.812Z,12.63
2019-03-25T19:43:06.946Z,13.03
2019-03-25T19:45:35.943Z,14.93
2019-03-25T19:48:05.227Z,14.70
2019-03-25T19:50:34.140Z,14.07
2019-03-25T19:53:03.206Z,14.37
2019-03-25T19:55:32.333Z,12.23
2019-03-25T19:58:04.278Z,11.37
2019-03-25T20:00:38.409Z,11.10
2019-03-25T20:03:07.554Z,10.33
2019-03-25T20:05:36.621Z,10.50
2019-03-25T20:08:05.974Z,8.97
2019-03-25T20:10:36.495Z,8.63
2019-03-25T20:13:06.011Z,8.73
2019-03-25T20:15:45.625Z,10.63
2019-03-25T20:18:08.909Z,11.37
2019-03-25T20:20:38.187Z,14.43
2019-03-25T20:23:07.301Z,17.07
2019-03-25T20:25:36.321Z,15.53
2019-03-25T20:28:07.201Z,10.60
2019-03-25T20:30:36.341Z,7.80
2019-03-25T20:33:05.546Z,8.70
2019-03-25T20:35:34.563Z,7.37
2019-03-25T20:38:03.555Z,7.40
2019-03-25T20:40:32.582Z,6.63
2019-03-25T20:43:01.588Z,7.40
2019-03-25T20:45:30.604Z,7.67
2019-03-25T20:47:59.632Z,7.97
2019-03-25T20:50:28.673Z,7.83
2019-03-25T20:52:57.719Z,7.40
2019-03-25T20:55:26.639Z,7.10
2019-03-25T20:57:55.608Z,6.77
2019-03-25T21:00:50.784Z,7.17
2019-03-25T21:03:21.011Z,6.87
2019-03-25T21:05:51.548Z,7.50
2019-03-25T21:08:20.456Z,6.80
2019-03-25T21:10:49.409Z,6.87
2019-03-25T21:13:18.147Z,6.63
2019-03-25T21:15:46.974Z,6.70
2019-03-25T21:18:15.945Z,7.53
2019-03-25T21:20:44.667Z,7.40
2019-03-25T21:23:13.395Z,6.80
2019-03-25T21:25:42.135Z,7.30
2019-03-25T21:28:10.914Z,9.30
2019-03-25T21:30:47.737Z,9.03
2019-03-25T21:33:10.084Z,11.87
2019-03-25T21:35:38.785Z,8.77
2019-03-25T21:38:07.436Z,11.87
2019-03-25T21:40:36.074Z,21.27
2019-03-25T21:43:04.889Z,22.93
2019-03-25T21:45:33.589Z,25.87
2019-03-25T21:48:02.194Z,32.70
2019-03-25T21:50:30.857Z,32.90
2019-03-25T21:52:59.541Z,25.87
2019-03-25T21:55:28.086Z,23.90
2019-03-25T21:57:56.747Z,24.37
2019-03-25T22:00:25.444Z,25.60
2019-03-25T22:02:54.033Z,25.03
2019-03-25T22:05:22.659Z,24.80
2019-03-25T22:07:51.258Z,25.40
2019-03-25T22:10:19.879Z,24.30
2019-03-25T22:12:48.514Z,29.47
2019-03-25T22:15:17.332Z,27.97
2019-03-25T22:17:45.918Z,30.90
2019-03-25T22:20:14.793Z,31.17
2019-03-25T22:22:43.343Z,25.90
2019-03-25T22:25:12.213Z,25.93
2019-03-25T22:27:40.882Z,23.17
2019-03-25T22:30:12.782Z,23.57
2019-03-25T22:32:41.454Z,24.20
2019-03-25T22:35:10.182Z,26.37
2019-03-25T22:37:38.825Z,27.27
2019-03-25T22:40:08.204Z,24.43
2019-03-25T22:42:36.828Z,24.90
2019-03-25T22:45:07.108Z,25.60
2019-03-25T22:47:36.438Z,22.57
2019-03-25T22:50:07.627Z,22.17
2019-03-25T22:52:36.108Z,21.83
2019-03-25T22:55:07.059Z,23.47
2019-03-25T22:57:35.538Z,20.27
2019-03-25T23:00:05.649Z,16.03
2019-03-25T23:02:34.328Z,15.80
2019-03-25T23:05:02.963Z,18.00
2019-03-25T23:07:31.559Z,17.53
2019-03-25T23:10:00.363Z,17.67
2019-03-25T23:12:28.928Z,19.73
2019-03-25T23:14:57.657Z,19.33
2019-03-25T23:17:26.287Z,18.67
2019-03-25T23:19:54.917Z,20.80
2019-03-25T23:22:26.419Z,21.17
2019-03-25T23:24:55.165Z,21.37
2019-03-25T23:27:23.888Z,19.27
2019-03-25T23:29:52.524Z,19.40
2019-03-25T23:32:21.241Z,20.67
2019-03-25T23:34:49.995Z,21.33
2019-03-25T23:37:18.737Z,23.17
2019-03-25T23:39:47.494Z,22.67
2019-03-25T23:42:16.061Z,23.57
2019-03-25T23:44:44.634Z,28.67
2019-03-25T23:47:13.271Z,23.77
2019-03-25T23:49:42.039Z,21.80
2019-03-25T23:52:10.752Z,20.67
2019-03-25T23:54:39.430Z,18.80
2019-03-25T23:57:08.192Z,18.53
2019-03-25T23:59:39.441Z,15.73
